createdAt,value
2022-11-14T00:00:03.143Z,98.24
2022-11-14T00:05:02.781Z,98.41
2022-11-14T00:10:02.379Z,98.18
2022-11-14T00:15:03.219Z,98.13
2022-11-14T00:20:02.896Z,98.31
2022-11-14T00:25:02.812Z,98.39
2022-11-14T00:30:03.320Z,98.37
2022-11-14T00:35:02.841Z,98.47
2022-11-14T00:40:02.730Z,98.47
2022-11-14T00:45:03.104Z,98.47
2022-11-14T00:50:03.187Z,98.51
2022-11-14T00:55:04.124Z,98.58
2022-11-14T01:00:03.599Z,98.61
2022-11-14T01:05:03.057Z,98.36
2022-11-14T01:10:02.842Z,98.53
2022-11-14T01:15:02.957Z,98.39
2022-11-14T01:20:02.678Z,98.47
2022-11-14T01:25:02.680Z,98.37
2022-11-14T01:30:16.585Z,98.51
2022-11-14T01:35:03.072Z,98.54
2022-11-14T01:40:02.728Z,98.55
2022-11-14T01:45:02.557Z,98.67
2022-11-14T01:50:03.481Z,98.75
2022-11-14T01:55:04.264Z,98.64
2022-11-14T02:00:02.492Z,98.65
2022-11-14T02:05:02.404Z,98.63
2022-11-14T02:10:03.406Z,98.6
2022-11-14T02:15:02.683Z,99.03
2022-11-14T02:20:05.864Z,98.92
2022-11-14T02:25:03.642Z,98.85
2022-11-14T02:30:03.017Z,98.83
2022-11-14T02:35:02.578Z,98.72
2022-11-14T02:40:02.527Z,98.69
2022-11-14T02:45:03.461Z,98.7
2022-11-14T02:50:02.968Z,98.52
2022-11-14T02:55:03.468Z,98.62
2022-11-14T03:00:02.479Z,98.74
2022-11-14T03:05:02.500Z,98.85
2022-11-14T03:10:03.105Z,98.68
2022-11-14T03:15:03.090Z,98.69
2022-11-14T03:20:02.806Z,98.88
2022-11-14T03:25:02.225Z,98.82
2022-11-14T03:30:03.068Z,99.14
2022-11-14T03:35:02.740Z,99.16
2022-11-14T03:40:02.981Z,99.29
2022-11-14T03:45:02.855Z,99.35
2022-11-14T03:50:03.157Z,99.19
2022-11-14T03:55:04.316Z,99.3
2022-11-14T04:00:03.216Z,99.51
2022-11-14T04:05:03.212Z,99.51
2022-11-14T04:10:02.956Z,99.6
2022-11-14T04:15:02.413Z,99.71
2022-11-14T04:20:02.413Z,99.71
2022-11-14T04:25:03.046Z,99.77
2022-11-14T04:30:03.396Z,99.69
2022-11-14T04:35:02.650Z,99.58
2022-11-14T04:40:02.581Z,99.57
2022-11-14T04:45:04.059Z,99.53
2022-11-14T04:50:03.158Z,99.77
2022-11-14T04:55:04.443Z,99.84
2022-11-14T05:00:02.727Z,100
2022-11-14T05:05:02.420Z,99.75
2022-11-14T05:10:03.603Z,99.72
2022-11-14T05:15:03.188Z,99.63
2022-11-14T05:20:02.639Z,99.65
2022-11-14T05:25:02.530Z,99.79
2022-11-14T05:30:03.244Z,99.46
2022-11-14T05:35:03.088Z,99.57
2022-11-14T05:40:03.026Z,99.46
2022-11-14T05:45:02.698Z,99.48
2022-11-14T05:50:02.695Z,99.48
2022-11-14T05:55:03.695Z,99.62
2022-11-14T06:00:03.284Z,99.75
2022-11-14T06:05:03.724Z,99.62
2022-11-14T06:10:03.160Z,99.74
2022-11-14T06:15:02.611Z,99.66
2022-11-14T06:20:02.721Z,99.82
2022-11-14T06:25:02.414Z,99.71
2022-11-14T06:30:03.803Z,99.75
2022-11-14T06:35:03.093Z,99.89
2022-11-14T06:40:02.560Z,99.97
2022-11-14T06:45:02.444Z,99.87
2022-11-14T06:50:03.046Z,99.3
2022-11-14T06:55:03.912Z,99.19
2022-11-14T07:00:02.601Z,98.9
2022-11-14T07:05:02.485Z,98.71
2022-11-14T07:10:02.925Z,98.74
2022-11-14T07:15:02.767Z,98.43
2022-11-14T07:20:02.520Z,98.11
2022-11-14T07:25:02.323Z,96.12
2022-11-14T07:30:03.159Z,94.93
2022-11-14T07:35:03.548Z,93.28
2022-11-14T07:40:03.051Z,92.77
2022-11-14T07:45:02.500Z,91.61
2022-11-14T07:50:03.075Z,90.37
2022-11-14T07:55:04.056Z,89.06
2022-11-14T08:00:02.797Z,89.28
2022-11-14T08:05:02.670Z,87.35
2022-11-14T08:10:03.119Z,87.36
2022-11-14T08:15:03.088Z,86.61
2022-11-14T08:20:02.928Z,86.63
2022-11-14T08:25:02.734Z,85.84
2022-11-14T08:30:03.773Z,85.02
2022-11-14T08:35:02.969Z,85.61
2022-11-14T08:40:02.749Z,85
2022-11-14T08:45:02.649Z,82.77
2022-11-14T08:50:03.443Z,82.37
2022-11-14T08:55:04.351Z,82.94
2022-11-14T09:00:02.828Z,80.09
2022-11-14T09:05:02.374Z,80.96
2022-11-14T09:10:02.496Z,79.37
2022-11-14T09:15:03.118Z,79.87
2022-11-14T09:20:02.819Z,80.24
2022-11-14T09:25:02.694Z,78.19
2022-11-14T09:30:02.554Z,79.4
2022-11-14T09:35:03.539Z,78.58
2022-11-14T09:40:03.053Z,78
2022-11-14T09:45:02.696Z,78.27
2022-11-14T09:50:02.491Z,76.43
2022-11-14T09:55:03.787Z,76.02
2022-11-14T10:00:03.504Z,75.13
2022-11-14T10:05:02.808Z,77.35
2022-11-14T10:10:02.387Z,75.96
2022-11-14T10:15:03.406Z,76.18
2022-11-14T10:20:03.505Z,73.79
2022-11-14T10:25:03.159Z,73.24
2022-11-14T10:30:02.983Z,71.94
2022-11-14T10:35:02.503Z,71.58
2022-11-14T10:40:03.037Z,71.69
2022-11-14T10:45:03.019Z,71.15
2022-11-14T10:50:02.638Z,69.62
2022-11-14T10:55:04.285Z,70.86
2022-11-14T11:00:03.146Z,69.3
2022-11-14T11:05:03.258Z,69.82
2022-11-14T11:10:02.819Z,69.52
2022-11-14T11:15:02.440Z,67.59
2022-11-14T11:20:07.832Z,67.97
2022-11-14T11:25:02.635Z,69.04
2022-11-14T11:30:02.826Z,68.68
2022-11-14T11:35:03.088Z,68.46
2022-11-14T11:40:02.831Z,68.24
2022-11-14T11:45:03.045Z,66.1
2022-11-14T11:50:02.547Z,66.62
2022-11-14T11:55:04.314Z,66
2022-11-14T12:00:02.699Z,66.03
2022-11-14T12:05:02.314Z,65.77
2022-11-14T12:10:13.532Z,65.17
2022-11-14T12:15:03.135Z,65.92
2022-11-14T12:20:02.691Z,65.03
2022-11-14T12:25:02.409Z,64.64
2022-11-14T12:30:03.027Z,64.48
2022-11-14T12:35:03.683Z,64.76
2022-11-14T12:40:03.004Z,64.81
2022-11-14T12:45:02.545Z,63.7
2022-11-14T12:50:03.247Z,64.3
2022-11-14T12:55:03.749Z,62.1
2022-11-14T13:00:04.458Z,63.95
2022-11-14T13:05:03.218Z,62.17
2022-11-14T13:10:02.845Z,64.05
2022-11-14T13:15:02.619Z,63.31
2022-11-14T13:20:02.312Z,63.29
2022-11-14T13:25:03.456Z,64.22
2022-11-14T13:30:03.034Z,63.78
2022-11-14T13:35:02.605Z,63.92
2022-11-14T13:40:02.358Z,64.46
2022-11-14T13:45:02.916Z,64.84
2022-11-14T13:50:02.984Z,63.42
2022-11-14T13:55:03.522Z,65.95
2022-11-14T14:00:02.958Z,65.86
2022-11-14T14:05:03.109Z,65.88
2022-11-14T14:10:02.699Z,65.93
2022-11-14T14:15:03.307Z,66.77
2022-11-14T14:20:03.015Z,67.77
2022-11-14T14:25:02.574Z,68.75
2022-11-14T14:30:02.802Z,68.88
2022-11-14T14:35:03.389Z,72.15
2022-11-14T14:40:02.977Z,71.52
2022-11-14T14:45:02.962Z,73.43
2022-11-14T14:50:02.527Z,75.07
2022-11-14T14:55:04.881Z,76.33
2022-11-14T15:00:03.440Z,78.04
2022-11-14T15:05:02.998Z,77.72
2022-11-14T15:10:03.012Z,78.42
2022-11-14T15:15:02.343Z,78.79
2022-11-14T15:20:03.588Z,78.92
2022-11-14T15:25:03.206Z,78.51
2022-11-14T15:30:02.663Z,79.37
2022-11-14T15:35:02.785Z,79.35
2022-11-14T15:40:03.383Z,79.42
2022-11-14T15:45:03.148Z,80.21
2022-11-14T15:50:02.567Z,80.61
2022-11-14T15:55:04.892Z,81.65
2022-11-14T16:00:03.595Z,81.89
2022-11-14T16:05:02.718Z,81.89
2022-11-14T16:10:02.402Z,82.11
2022-11-14T16:15:03.354Z,82.93
2022-11-14T16:20:03.313Z,83.23
2022-11-14T16:25:03.246Z,83.65
2022-11-14T16:30:02.917Z,83.94
2022-11-14T16:35:02.676Z,84.93
2022-11-14T16:40:03.518Z,84.8
2022-11-14T16:45:03.118Z,84.12
2022-11-14T16:50:02.639Z,84.1
2022-11-14T16:55:03.765Z,83.94
2022-11-14T17:00:03.316Z,83.25
2022-11-14T17:05:02.587Z,83.64
2022-11-14T17:10:03.158Z,84.39
2022-11-14T17:15:03.331Z,84.99
2022-11-14T17:20:03.034Z,84.59
2022-11-14T17:25:02.505Z,84.24
2022-11-14T17:30:03.405Z,84.48
2022-11-14T17:35:02.918Z,84.39
2022-11-14T17:40:03.030Z,84.58
2022-11-14T17:45:02.452Z,84.45
2022-11-14T17:50:03.151Z,84.76
2022-11-14T17:55:04.592Z,85.45
2022-11-14T18:00:03.378Z,85.35
2022-11-14T18:05:03.042Z,85.45
2022-11-14T18:10:02.695Z,86.36
2022-11-14T18:15:03.383Z,86.02
2022-11-14T18:20:03.069Z,86.15
2022-11-14T18:25:07.570Z,85.98
2022-11-14T18:30:13.638Z,86.26
2022-11-14T18:35:02.940Z,86.14
2022-11-14T18:40:02.573Z,85.02
2022-11-14T18:45:02.778Z,84.73
2022-11-14T18:50:03.272Z,84.41
2022-11-14T18:55:03.927Z,84.3
2022-11-14T19:00:02.525Z,83.91
2022-11-14T19:05:03.253Z,84.99
2022-11-14T19:10:03.047Z,84.84
2022-11-14T19:15:03.074Z,84.56
2022-11-14T19:20:02.558Z,84.33
2022-11-14T19:25:03.533Z,85.63
2022-11-14T19:30:03.097Z,85.39
2022-11-14T19:35:02.837Z,85.65
2022-11-14T19:40:02.835Z,86.52
2022-11-14T19:45:03.285Z,86.59
2022-11-14T19:50:03.078Z,86.69
2022-11-14T19:55:03.841Z,88.24
2022-11-14T20:00:02.408Z,88.14
2022-11-14T20:05:03.408Z,87.65
2022-11-14T20:10:02.892Z,88.71
2022-11-14T20:15:02.919Z,90.99
2022-11-14T20:20:02.414Z,90.53
2022-11-14T20:25:03.297Z,91.57
2022-11-14T20:30:03.047Z,91.55
2022-11-14T20:35:02.897Z,91.2
2022-11-14T20:40:02.358Z,90.98
2022-11-14T20:45:03.314Z,91.6
2022-11-14T20:50:02.858Z,90.83
2022-11-14T20:55:12.281Z,91.39
2022-11-14T21:00:02.837Z,91.39
2022-11-14T21:05:02.938Z,91.98
2022-11-14T21:10:03.281Z,94.14
2022-11-14T21:15:03.141Z,94.47
2022-11-14T21:20:02.638Z,93.91
2022-11-14T21:25:02.480Z,92.08
2022-11-14T21:30:03.525Z,92.15
2022-11-14T21:35:09.894Z,91.97
2022-11-14T21:40:02.857Z,92.63
2022-11-14T21:45:02.385Z,92.75
2022-11-14T21:50:03.252Z,92.81
2022-11-14T21:55:04.240Z,92.2
2022-11-14T22:00:02.760Z,91.29
2022-11-14T22:05:02.744Z,90.04
2022-11-14T22:10:03.150Z,90.15
2022-11-14T22:15:03.203Z,91.01
2022-11-14T22:20:02.556Z,91.04
2022-11-14T22:25:02.468Z,91.7
2022-11-14T22:30:03.585Z,91.62
2022-11-14T22:35:02.977Z,92.67
2022-11-14T22:40:02.947Z,92.69
2022-11-14T22:45:03.258Z,93.05
2022-11-14T22:50:03.023Z,92.18
2022-11-14T22:55:04.304Z,91.68
2022-11-14T23:00:02.708Z,92.08
2022-11-14T23:05:02.797Z,93.5
2022-11-14T23:10:02.881Z,93.4
2022-11-14T23:15:03.392Z,94.81
2022-11-14T23:20:03.134Z,93.88
2022-11-14T23:25:02.706Z,94.02
2022-11-14T23:30:02.484Z,93.81
2022-11-14T23:35:02.750Z,93.81
2022-11-14T23:40:03.275Z,94.17
2022-11-14T23:45:03.054Z,93.38
2022-11-14T23:50:02.644Z,94.87
2022-11-14T23:55:03.862Z,95.16
